• Join FlightAware (Why Join?)
  • Login
  • US Flag 
03:53PM EDT


 

Airport Tracker/Info


-or-


 

Live Flight TrackerFlight Track Log ✈ EJA922 ✈ 27-Jun-2013 ✈ KBWI - TXKF / BDA

Flight Track Log - Related Links

Times and Time Zones

All times are in EDT time to prevent confusion due to time zone crossing. See the EJA922 flight status page for this flight to view local times or setup timezone preferences in your user account.

Time Position Orientation Groundspeed Altitude Reporting Facility
EDT Latitude Longitude Course Direction KTS MPH feet Rate Location/Type
05:33PM 39.1333 -76.6333 90° East 220 253 2,800  Level Potomac TRACON
05:35PM 39.0558 -76.4925 125° Southeast 278 320 6,800 2,340 Climbing Washington Center
05:36PM 39.0294 -76.3878 108° East 284 327 9,400 2,520 Climbing Washington Center
05:37PM 39.0303 -76.2756 89° East 298 343 11,900 2,160 Climbing Washington Center
05:38PM 39.0392 -76.1475 85° East 338 389 13,800 2,100 Climbing Washington Center
05:39PM 39.0500 -75.7157 90° East  Level FlightAware Approximate
05:39PM 39.0167 -76.0192 103° East 343 395 16,100  Level Washington Center
05:40PM 39.0067 -75.8856 95° East 358 412 18,300 1,620 Climbing Washington Center
05:41PM 38.9944 -75.7464 96° East 378 435 19,400 1,020 Climbing Washington Center
05:42PM 38.9819 -75.5969 96° East 401 461 20,400 1,080 Climbing Washington Center
05:43PM 38.9694 -75.4422 96° East 424 488 21,700 1,020 Climbing Washington Center
05:44PM 38.9567 -75.2872 96° East 429 494 22,500 840 Climbing Washington Center
05:45PM 38.9417 -75.1406 97° East 446 513 23,400 900 Climbing Washington Center
05:47PM 38.8847 -74.9337 105° East  Level FlightAware Approximate
05:47PM 38.8858 -74.8264 105° East 445 512 25,200  Level Washington Center
05:48PM 38.8492 -74.6667 106° East 455 524 26,200 840 Climbing Washington Center
05:50PM 38.7919 -74.4122 106° East 460 529 27,500 780 Climbing New York Center
05:51PM 38.7531 -74.2506 107° East 466 536 28,300 840 Climbing New York Center
05:52PM 38.7139 -74.0836 107° East 472 543 29,200 780 Climbing New York Center
05:53PM 38.6619 -73.9297 113° Southeast 472 543 29,900 660 Climbing New York Center
05:54PM 38.5867 -73.7828 123° Southeast 477 549 30,600 480 Climbing New York Center
05:55PM 38.5153 -73.6339 121° Southeast 487 560 30,900 -180 Climbing New York Center
05:56PM 38.4353 -73.4847 124° Southeast 500 575 30,300 -480 Descending New York Center
05:57PM 38.3556 -73.3256 123° Southeast 520 598 30,000 -180 Descending New York Center
05:58PM 38.2733 -73.1667 123° Southeast 527 606 30,000  Level New York Center
05:59PM 38.1933 -73.0081 123° Southeast 532 612 30,000  Level New York Center
06:00PM 38.1086 -72.8522 125° Southeast 537 618 30,000  Level New York Center
06:01PM 38.0319 -72.6944 122° Southeast 537 618 30,000  Level New York Center
06:02PM 37.9511 -72.5369 123° Southeast 537 618 30,000  Level New York Center
06:03PM 37.8678 -72.3822 124° Southeast 537 618 30,000  Level New York Center
06:04PM 37.7906 -72.2283 122° Southeast 532 612 30,000  Level New York Center
06:05PM 37.7089 -72.0847 126° Southeast 525 604 30,000  Level New York Center
06:06PM 37.6294 -71.9156 121° Southeast 530 610 30,000  Level New York Center
06:07PM 37.5558 -71.7678 122° Southeast 525 604 30,000  Level New York Center
06:08PM 37.4589 -71.6225 130° Southeast 540 621 30,000  Level New York Center
06:09PM 37.3703 -71.4722 127° Southeast 535 616 30,000  Level New York Center
06:10PM 37.2833 -71.3253 127° Southeast 530 610 30,000  Level New York Center
06:11PM 37.1964 -71.1786 127° Southeast 530 610 30,000  Level New York Center
06:13PM 37.0647 -70.9572 127° Southeast  Level FlightAware Approximate
06:20PM 36.5353 -70.0780 127° Southeast  Level FlightAware Approximate
06:21PM 36.4593 -69.9533 127° Southeast  Level FlightAware Approximate
06:22PM 36.3832 -69.8288 127° Southeast  Level FlightAware Approximate
06:23PM 36.3070 -69.7045 127° Southeast  Level FlightAware Approximate
06:23PM 36.1667 -69.4500 143° Southeast 507 583 30,000  Level New York Oceanic (ODAPS)
06:24PM 36.2306 -69.5805 127° Southeast  Level FlightAware Approximate
06:25PM 36.1541 -69.4567 127° Southeast  Level FlightAware Approximate
06:26PM 36.0557 -69.3600 142° Southeast  Level FlightAware Approximate
06:27PM 35.9560 -69.2652 142° Southeast  Level FlightAware Approximate
06:28PM 35.8562 -69.1705 142° Southeast  Level FlightAware Approximate
06:29PM 35.3793 -68.7129 143° Southeast 507 583 30,000  Level FlightAware Transoceanic
06:30PM 35.2665 -68.6088 143° Southeast 507 583 30,000  Level FlightAware Transoceanic
06:31PM 35.1536 -68.5050 143° Southeast 507 583 30,000  Level FlightAware Transoceanic
06:32PM 35.0406 -68.4015 143° Southeast 507 583 30,000  Level FlightAware Transoceanic
06:33PM 34.9275 -68.2982 143° Southeast 507 583 30,000  Level FlightAware Transoceanic
06:34PM 34.8143 -68.1953 143° Southeast 507 583 30,000  Level FlightAware Transoceanic
06:35PM 34.7010 -68.0926 143° Southeast 507 583 30,000  Level FlightAware Transoceanic
06:36PM 34.5876 -67.9902 143° Southeast 507 583 30,000  Level FlightAware Transoceanic
06:37PM 34.4742 -67.8880 143° Southeast 507 583 30,000  Level FlightAware Transoceanic
06:38PM 34.3606 -67.7862 144° Southeast 507 583 30,000  Level FlightAware Transoceanic
06:39PM 34.2470 -67.6846 144° Southeast 507 583 30,000  Level FlightAware Transoceanic
06:40PM 34.1333 -67.5833 125° Southeast 507 583 30,000  Level FlightAware Transoceanic
06:41PM 34.0508 -67.4426 125° Southeast 507 583 30,000  Level FlightAware Transoceanic
06:42PM 33.9680 -67.3020 125° Southeast 507 583 30,000  Level FlightAware Transoceanic
06:43PM 33.8851 -67.1618 126° Southeast 507 583 30,000  Level FlightAware Transoceanic
06:43PM 34.1333 -67.5833 125° Southeast 514 592 30,000  Level New York Oceanic (ODAPS)
06:44PM 33.8021 -67.0219 126° Southeast 507 583 30,000  Level FlightAware Transoceanic
06:45PM 33.7189 -66.8821 126° Southeast 507 583 30,000  Level FlightAware Transoceanic
06:45PM 34.1333 -67.5833 125° Southeast 436 502 30,000  Level New York Oceanic (ODAPS)
06:46PM 33.6355 -66.7427 126° Southeast 507 583 30,000  Level FlightAware Transoceanic
06:47PM 33.5520 -66.6036 126° Southeast 507 583 30,000  Level FlightAware Transoceanic
06:48PM 33.4683 -66.4647 126° Southeast 507 583 30,000  Level FlightAware Transoceanic
06:49PM 33.3844 -66.3261 126° Southeast 507 583 30,000  Level FlightAware Transoceanic
06:50PM 33.2328 -66.0764 126° Southeast 514 592 30,000  Level FlightAware Transoceanic
06:51PM 33.1501 -65.9410 126° Southeast 514 592 30,000  Level FlightAware Transoceanic
06:52PM 33.2140 -66.0456 126° Southeast 436 502 30,000  Level FlightAware Transoceanic
06:53PM 33.1425 -65.9287 126° Southeast 436 502 30,000  Level FlightAware Transoceanic
06:54PM 33.0709 -65.8119 126° Southeast 436 502 30,000 -9,840 Level FlightAware Transoceanic
06:54PM 33.0500 -65.7667 127° Southeast 411 473 20,000  Descending New York Oceanic (ODAPS)
06:55PM 32.9992 -65.6954 126° Southeast 436 502 30,000 5,040 Climbing FlightAware Transoceanic
06:56PM 32.9274 -65.5790 126° Southeast 436 502 30,000  Level FlightAware Transoceanic
06:57PM 32.8554 -65.4628 126° Southeast 436 502 30,000  Level FlightAware Transoceanic
06:58PM 32.7834 -65.3468 126° Southeast 436 502 30,000  Level FlightAware Transoceanic
06:59PM 32.7113 -65.2310 127° Southeast 436 502 30,000 -19,860 Level FlightAware Transoceanic
06:59PM 33.0500 -65.7667 119° Southeast 415 478 9,500 -10,020 Descending New York Oceanic (ODAPS)
07:00PM 32.6360 -65.1090 127° Southeast 411 473 20,000 5,280 Climbing FlightAware Transoceanic
07:01PM 32.5667 -65.0000 106° East 411 473 20,000  Level FlightAware Transoceanic
07:02PM 32.5225 -64.8165 106° East 411 473 20,000 -11,880 Level FlightAware Transoceanic
07:02PM 33.0500 -65.7667 119° Southeast 415 478 3,600  Descending New York Oceanic (ODAPS)
07:03PM 32.4780 -64.6331 106° East 411 473 20,000 2,220 Climbing FlightAware Transoceanic
07:04PM 32.3910 -64.7379 132° Southeast  Level FlightAware Approximate
07:05PM 32.6275 -64.8595 119° Southeast 415 478 9,500  Level FlightAware Transoceanic
07:06PM 32.5888 -64.7775 119° Southeast 415 478 9,500  Level FlightAware Transoceanic
07:07PM 32.5500 -64.6955 119° Southeast 415 478 9,500 -3,000 Level FlightAware Transoceanic
07:08PM 32.5112 -64.6136 119° Southeast 415 478 3,600 -3,000 Descending FlightAware Transoceanic
07:09PM 32.4723 -64.5318 119° Southeast 415 478 3,600  Level FlightAware Transoceanic
07:10PM 32.4333 -64.4500 196° South 415 478 3,600  Level FlightAware Transoceanic
07:11PM 32.3941 -64.5796 250° West  Level Estimated
07:12PM 32.3640 -64.6787 250° West  Level Estimated
07:13PM 32.3640 -64.6787 308° West  Level Estimated
07:14PM 32.3640 -64.6787 308° West  Level Estimated
07:15PM 32.3640 -64.6787 308° West  Level Estimated
07:16PM 32.3640 -64.6787 308° West  Level Estimated